Time;durP1;ratioP1;P1;durP2;ratioP2;P2;SDS_P1;SDS_P2;PMS_P1;PMS_P2;Temp;Humidity;BMP_temperature;BMP_pressure;BME280_temperature;BME280_humidity;BME280_pressure;Samples;Min_cycle;Max_cycle;Signal;HPM_P1;HPM_P2
2023/09/22 00:01:10;;;;;;;14.45;5.45;;;;;;;24.13;54.25;99139.94;2246126;78;51529;-74
2023/09/22 00:04:12;;;;;;;15.78;5.12;;;;;;;24.15;54.18;99142.37;2221376;78;51679;-74
2023/09/22 00:07:14;;;;;;;12.93;5.35;;;;;;;24.14;54.26;99144.27;2244894;78;50615;-75
2023/09/22 00:10:17;;;;;;;9.88;4.30;;;;;;;24.12;54.30;99143.19;2270805;77;51402;-75
2023/09/22 00:13:19;;;;;;;13.03;4.87;;;;;;;24.11;54.38;99138.83;2245749;78;52251;-75
2023/09/22 00:16:21;;;;;;;12.03;5.00;;;;;;;24.11;54.52;99138.83;2272676;76;51392;-75
2023/09/22 00:19:24;;;;;;;13.80;5.17;;;;;;;24.09;54.64;99135.56;2293526;76;51752;-72
2023/09/22 00:22:27;;;;;;;11.73;4.92;;;;;;;24.07;54.72;99129.63;2318730;76;50406;-74
2023/09/22 00:25:29;;;;;;;11.80;5.62;;;;;;;24.06;54.77;99129.33;2316992;76;51553;-74
2023/09/22 00:28:31;;;;;;;11.57;5.25;;;;;;;24.06;54.85;99127.98;2266334;76;51166;-75
2023/09/22 00:31:34;;;;;;;9.55;4.75;;;;;;;24.06;54.85;99141.48;2318249;76;50241;-75
2023/09/22 00:34:36;;;;;;;12.45;5.10;;;;;;;24.06;54.83;99150.95;2318388;75;50311;-74
2023/09/22 00:37:40;;;;;;;10.10;4.35;;;;;;;24.10;54.70;99162.89;2266431;76;51670;-74
2023/09/22 00:40:42;;;;;;;11.95;4.85;;;;;;;24.10;54.64;99170.19;2313939;76;51565;-74
2023/09/22 00:43:44;;;;;;;13.25;5.03;;;;;;;24.12;54.57;99166.67;2310965;77;50406;-74
2023/09/22 00:46:46;;;;;;;9.23;4.83;;;;;;;24.10;54.54;99158.83;2235791;76;51303;-74
2023/09/22 00:49:49;;;;;;;11.45;4.92;;;;;;;24.10;54.51;99163.43;2312450;77;50289;-75
2023/09/22 00:52:52;;;;;;;11.70;4.60;;;;;;;24.12;54.61;99170.72;2312934;76;50236;-75
2023/09/22 00:55:54;;;;;;;11.55;5.05;;;;;;;24.10;54.54;99160.73;2282084;77;51590;-74
2023/09/22 00:58:57;;;;;;;9.30;4.87;;;;;;;24.12;54.46;99164.80;2313143;75;51515;-74
2023/09/22 01:01:59;;;;;;;10.10;5.12;;;;;;;24.13;54.33;99154.80;2281850;77;51199;-73
2023/09/22 01:05:03;;;;;;;8.63;4.90;;;;;;;24.15;54.26;99167.53;2312899;75;50255;-73
2023/09/22 01:08:05;;;;;;;14.05;4.47;;;;;;;24.17;54.34;99160.50;2308215;76;22428;-74
2023/09/22 01:11:08;;;;;;;9.95;4.37;;;;;;;24.15;54.42;99155.88;2256883;76;52432;-73
2023/09/22 01:14:10;;;;;;;15.43;5.20;;;;;;;24.12;54.35;99151.80;2307525;75;51519;-74
2023/09/22 01:17:13;;;;;;;14.50;5.25;;;;;;;24.09;54.41;99155.83;2296265;76;51440;-73
2023/09/22 01:20:17;;;;;;;8.15;4.70;;;;;;;24.10;54.53;99160.19;2270632;77;50740;-75
2023/09/22 01:23:19;;;;;;;9.23;4.67;;;;;;;24.10;54.57;99162.08;2305663;76;51539;-74
2023/09/22 01:26:24;;;;;;;9.08;4.42;;;;;;;24.07;54.72;99170.16;2279882;77;49263;-75
2023/09/22 01:29:26;;;;;;;14.25;4.90;;;;;;;24.08;54.57;99169.08;2279714;77;50406;-74
2023/09/22 01:32:28;;;;;;;12.05;4.70;;;;;;;24.10;54.53;99172.89;2310944;77;51538;-74
2023/09/22 01:35:35;;;;;;;9.73;4.90;;;;;;;24.10;54.42;99169.64;2280025;77;52281;-74
2023/09/22 01:38:37;;;;;;;8.43;4.47;;;;;;;24.11;54.36;99168.56;2311294;76;51586;-73
2023/09/22 01:41:39;;;;;;;12.50;4.60;;;;;;;24.12;54.30;99163.97;2269275;77;50687;-74
2023/09/22 01:44:42;;;;;;;13.10;4.55;;;;;;;24.11;54.39;99170.45;2267069;77;51537;-74
2023/09/22 01:47:44;;;;;;;8.75;4.78;;;;;;;24.11;54.39;99182.61;2290292;76;51425;-74
2023/09/22 01:50:46;;;;;;;9.98;4.35;;;;;;;24.11;54.46;99187.48;2219010;77;52371;-74
2023/09/22 01:53:48;;;;;;;9.13;4.35;;;;;;;24.09;54.45;99196.37;2293805;77;50221;-74
2023/09/22 01:56:50;;;;;;;11.20;4.80;;;;;;;24.10;54.38;99203.42;2294022;77;50057;-74
2023/09/22 01:59:53;;;;;;;7.33;4.40;;;;;;;24.12;54.42;99206.69;2268345;77;52502;-74
2023/09/22 02:02:56;;;;;;;9.13;4.65;;;;;;;24.11;54.49;99202.34;2266910;77;50074;-74
2023/09/22 02:05:59;;;;;;;7.55;4.47;;;;;;;24.12;54.35;99195.04;2294191;77;50655;-75
2023/09/22 02:09:03;;;;;;;12.03;4.72;;;;;;;24.10;54.37;99199.91;2294029;77;51550;-74
2023/09/22 02:12:06;;;;;;;12.20;4.33;;;;;;;24.11;54.39;99206.94;2294185;77;22333;-74
2023/09/22 02:15:13;;;;;;;9.25;4.87;;;;;;;24.11;54.37;99202.34;2267150;77;50747;-75
2023/09/22 02:18:12;;;;;;;9.23;4.67;;;;;;;24.10;54.37;99193.97;2288117;77;22336;-75
2023/09/22 02:21:17;;;;;;;10.18;4.67;;;;;;;24.10;54.33;99203.42;2263305;77;50605;-75
2023/09/22 02:24:19;;;;;;;12.03;4.95;;;;;;;24.09;54.34;99193.66;2267346;77;22895;-75
2023/09/22 02:27:21;;;;;;;9.33;4.33;;;;;;;24.09;54.40;99197.72;2293960;77;50295;-75
2023/09/22 02:30:24;;;;;;;8.65;4.60;;;;;;;24.09;54.41;99208.53;2293912;77;50391;-75
2023/09/22 02:33:26;;;;;;;9.85;5.10;;;;;;;24.09;54.42;99209.88;2266978;77;50396;-75
2023/09/22 02:36:29;;;;;;;6.80;4.42;;;;;;;24.09;54.33;99216.63;2267030;77;51153;-73
2023/09/22 02:39:31;;;;;;;8.53;4.60;;;;;;;24.09;54.35;99218.53;2226227;77;51208;-74
2023/09/22 02:42:34;;;;;;;8.90;4.22;;;;;;;24.09;54.55;99218.53;2266970;77;51570;-74
2023/09/22 02:45:40;;;;;;;7.55;4.37;;;;;;;24.09;54.42;99220.69;2293894;77;50299;-74
2023/09/22 02:48:42;;;;;;;9.15;4.05;;;;;;;24.08;54.44;99236.63;2224259;77;50123;-73
2023/09/22 02:51:44;;;;;;;9.33;4.33;;;;;;;24.07;54.41;99249.88;2267396;77;51434;-74
2023/09/22 02:54:47;;;;;;;14.73;4.42;;;;;;;24.06;54.25;99254.17;2289408;77;50467;-74
2023/09/22 02:57:50;;;;;;;8.88;4.35;;;;;;;24.05;54.29;99250.66;2267180;77;51571;-73
2023/09/22 03:00:52;;;;;;;7.58;4.15;;;;;;;24.05;54.27;99250.66;2267384;77;50678;-73
2023/09/22 03:03:55;;;;;;;6.67;4.22;;;;;;;24.06;54.19;99250.92;2266710;77;50102;-72
2023/09/22 03:06:57;;;;;;;8.90;4.15;;;;;;;24.06;54.07;99263.09;2289614;77;50091;-72
2023/09/22 03:09:59;;;;;;;12.68;4.50;;;;;;;24.05;53.96;99260.66;2289596;77;50706;-72
2023/09/22 03:13:01;;;;;;;8.70;4.15;;;;;;;24.05;54.09;99267.41;2267895;77;52521;-73
2023/09/22 03:16:04;;;;;;;13.75;4.70;;;;;;;24.04;54.28;99271.16;2293827;77;50712;-74
2023/09/22 03:19:07;;;;;;;11.65;4.55;;;;;;;24.04;53.95;99272.52;2262096;77;50729;-73
2023/09/22 03:22:09;;;;;;;12.93;4.62;;;;;;;24.04;53.94;99266.57;2247891;78;50200;-74
2023/09/22 03:25:11;;;;;;;9.28;4.20;;;;;;;24.04;54.01;99284.13;2247370;76;50615;-73
2023/09/22 03:28:15;;;;;;;14.80;4.67;;;;;;;24.04;54.15;99291.42;2223326;78;51036;-73
2023/09/22 03:31:19;;;;;;;8.60;4.40;;;;;;;24.02;54.15;99279.54;2280392;76;51542;-74
2023/09/22 03:34:21;;;;;;;11.12;4.35;;;;;;;24.03;54.01;99299.27;2280188;76;51498;-73
2023/09/22 03:37:27;;;;;;;9.38;4.30;;;;;;;24.04;53.95;99302.23;2247851;77;50601;-73
2023/09/22 03:40:40;;;;;;;15.35;4.03;;;;;;;24.04;53.99;99310.34;2272747;78;22342;-75
2023/09/22 03:43:37;;;;;;;13.03;4.70;;;;;;;24.04;54.06;99324.66;2251505;76;22106;-73
2023/09/22 03:46:39;;;;;;;10.48;4.33;;;;;;;24.04;54.21;99327.91;2275491;77;49898;-73
2023/09/22 03:49:41;;;;;;;8.88;4.40;;;;;;;24.03;54.09;99343.31;2307063;76;50343;-73
2023/09/22 03:52:43;;;;;;;12.05;4.47;;;;;;;24.03;53.94;99362.77;2284671;76;51960;-72
2023/09/22 03:55:46;;;;;;;16.73;4.75;;;;;;;24.02;53.77;99362.46;2333716;76;51378;-72
2023/09/22 03:58:48;;;;;;;10.03;4.50;;;;;;;24.02;53.72;99365.16;2333768;75;50338;-75
2023/09/22 04:01:51;;;;;;;8.15;4.45;;;;;;;24.02;54.03;99367.36;2268055;76;49562;-74
2023/09/22 04:04:54;;;;;;;11.03;4.37;;;;;;;24.02;53.87;99367.36;2310221;76;51506;-73
2023/09/22 04:07:57;;;;;;;14.90;4.50;;;;;;;24.02;53.71;99368.70;2310488;76;50411;-72
2023/09/22 04:11:02;;;;;;;7.65;3.72;;;;;;;24.02;53.66;99375.47;2333667;76;51584;-72
2023/09/22 04:14:03;;;;;;;9.10;3.87;;;;;;;24.03;53.66;99379.79;2333811;76;22265;-72
2023/09/22 04:17:07;;;;;;;10.00;4.22;;;;;;;24.02;54.01;99382.22;2296440;76;52930;-72
2023/09/22 04:20:11;;;;;;;10.18;3.77;;;;;;;24.02;53.96;99380.87;2301200;76;22237;-72
2023/09/22 04:23:14;;;;;;;8.60;4.03;;;;;;;24.01;54.43;99370.30;2310197;75;50457;-72
2023/09/22 04:26:16;;;;;;;10.08;4.17;;;;;;;24.00;54.34;99361.92;2311687;76;49743;-74
2023/09/22 04:29:19;;;;;;;7.00;3.92;;;;;;;24.00;54.55;99360.57;2310312;76;51577;-74
2023/09/22 04:32:23;;;;;;;7.67;3.80;;;;;;;24.01;54.21;99362.19;2310191;76;51400;-74
2023/09/22 04:35:25;;;;;;;9.70;3.52;;;;;;;23.99;54.14;99362.42;2333836;76;50209;-74
2023/09/22 04:38:27;;;;;;;8.33;4.05;;;;;;;23.99;54.22;99354.33;2310415;76;50639;-74
2023/09/22 04:41:29;;;;;;;5.25;3.77;;;;;;;24.00;54.32;99337.06;2311734;76;51460;-73
2023/09/22 04:44:32;;;;;;;11.50;4.22;;;;;;;23.98;54.27;99331.09;2320967;76;50676;-73
2023/09/22 04:47:35;;;;;;;8.93;3.95;;;;;;;23.97;54.30;99318.66;2320841;76;51547;-73
2023/09/22 04:50:38;;;;;;;7.70;3.52;;;;;;;23.98;54.29;99320.28;2310716;76;51163;-73
2023/09/22 04:53:41;;;;;;;11.45;4.28;;;;;;;23.97;54.56;99324.06;2342040;76;50737;-73
2023/09/22 04:56:44;;;;;;;21.10;4.17;;;;;;;23.99;55.25;99344.05;2321135;76;50508;-73
2023/09/22 04:59:47;;;;;;;12.43;3.65;;;;;;;23.99;55.49;99359.73;2349218;75;51412;-73
2023/09/22 05:02:49;;;;;;;10.63;3.72;;;;;;;23.98;55.47;99389.17;2348930;75;50709;-73
2023/09/22 05:05:53;;;;;;;21.48;4.53;;;;;;;23.98;55.72;99397.82;2321128;76;51611;-73
2023/09/22 05:08:56;;;;;;;19.92;4.10;;;;;;;23.97;55.76;99397.52;2349114;75;51605;-73
2023/09/22 05:11:58;;;;;;;16.20;4.70;;;;;;;23.97;55.63;99397.02;2349163;75;51489;-73
2023/09/22 05:15:01;;;;;;;20.00;4.60;;;;;;;23.96;55.60;99391.30;2277933;76;52373;-73
2023/09/22 05:18:04;;;;;;;18.87;4.90;;;;;;;23.97;55.62;99383.50;2311252;75;51676;-73
2023/09/22 05:21:09;;;;;;;15.00;4.35;;;;;;;23.96;55.67;99372.39;2240046;77;52573;-73
2023/09/22 05:24:11;;;;;;;17.40;4.58;;;;;;;23.98;55.43;99368.91;2283970;77;22251;-74
2023/09/22 05:27:14;;;;;;;11.43;4.35;;;;;;;23.97;55.54;99365.94;2302935;77;50610;-72
2023/09/22 05:30:17;;;;;;;13.45;4.15;;;;;;;23.96;55.48;99378.34;2258629;77;52677;-73
2023/09/22 05:33:19;;;;;;;10.48;4.28;;;;;;;23.97;55.54;99380.80;2283599;77;51538;-73
2023/09/22 05:36:22;;;;;;;18.70;4.45;;;;;;;23.96;55.61;99375.09;2283726;77;51527;-73
2023/09/22 05:39:24;;;;;;;12.98;3.90;;;;;;;23.96;55.59;99389.14;2283692;77;51178;-73
2023/09/22 05:42:26;;;;;;;16.25;4.25;;;;;;;23.96;55.46;99401.30;2279988;76;49935;-73
2023/09/22 05:45:28;;;;;;;10.72;3.72;;;;;;;23.97;55.40;99411.88;2286082;76;50608;-73
2023/09/22 05:48:31;;;;;;;17.25;3.70;;;;;;;23.94;55.43;99420.45;2298693;74;50260;-74
2023/09/22 05:51:34;;;;;;;12.90;4.25;;;;;;;23.97;55.54;99441.59;2335201;75;50645;-73
2023/09/22 05:54:36;;;;;;;12.33;4.08;;;;;;;23.98;56.40;99439.70;2302880;75;51996;-71
2023/09/22 05:57:38;;;;;;;12.78;4.28;;;;;;;23.98;56.65;99462.13;2303113;76;52154;-73
2023/09/22 06:00:40;;;;;;;22.00;4.47;;;;;;;23.99;56.90;99471.86;2329094;75;50785;-73
2023/09/22 06:03:43;;;;;;;20.85;3.95;;;;;;;23.98;57.07;99481.05;2277181;76;52408;-74
2023/09/22 06:06:45;;;;;;;23.92;5.03;;;;;;;23.97;56.85;99486.17;2303038;76;50677;-73
2023/09/22 06:09:48;;;;;;;20.02;4.85;;;;;;;23.98;56.54;99494.55;2332371;75;50324;-74
2023/09/22 06:12:50;;;;;;;23.47;4.47;;;;;;;23.98;56.42;99498.61;2302839;76;51518;-74
2023/09/22 06:15:52;;;;;;;25.90;4.65;;;;;;;23.98;56.48;99505.36;2332373;75;50745;-72
2023/09/22 06:18:55;;;;;;;30.48;5.12;;;;;;;23.98;56.25;99499.95;2269043;76;51180;-73
2023/09/22 06:21:57;;;;;;;19.98;4.97;;;;;;;23.98;55.88;99504.01;2299170;76;50608;-74
2023/09/22 06:25:00;;;;;;;16.70;4.50;;;;;;;23.98;55.23;99491.85;2260643;77;50304;-73
2023/09/22 06:28:05;;;;;;;12.30;4.00;;;;;;;24.01;55.19;99486.48;2260629;76;51144;-74
2023/09/22 06:31:06;;;;;;;18.70;4.58;;;;;;;24.00;54.96;99484.32;2261323;77;22748;-73
2023/09/22 06:34:08;;;;;;;23.05;4.17;;;;;;;24.00;54.96;99493.78;2291250;76;51427;-73
2023/09/22 06:37:11;;;;;;;16.87;4.42;;;;;;;23.99;55.16;99506.17;2291695;77;50661;-73
2023/09/22 06:40:13;;;;;;;15.55;4.20;;;;;;;24.01;54.90;99504.05;2291573;76;50259;-74
2023/09/22 06:43:15;;;;;;;21.27;3.95;;;;;;;24.01;54.91;99512.16;2265115;75;50902;-74
2023/09/22 06:46:19;;;;;;;14.35;4.00;;;;;;;24.01;54.77;99525.12;2303021;75;50933;-74
2023/09/22 06:49:27;;;;;;;20.02;4.50;;;;;;;24.01;54.78;99518.38;2328720;75;51592;-74
2023/09/22 06:52:25;;;;;;;16.75;4.00;;;;;;;24.00;55.07;99519.45;2317639;76;22971;-73
2023/09/22 06:55:30;;;;;;;18.98;4.58;;;;;;;23.99;54.96;99502.94;2349646;75;51504;-72
2023/09/22 06:58:32;;;;;;;18.85;4.30;;;;;;;23.99;55.05;99501.58;2342892;75;22270;-73
2023/09/22 07:01:34;;;;;;;17.52;4.22;;;;;;;23.99;55.01;99519.14;2321666;76;51561;-72
2023/09/22 07:04:37;;;;;;;14.87;3.22;;;;;;;23.97;54.91;99537.52;2349470;75;51480;-72
2023/09/22 07:07:40;;;;;;;13.85;3.85;;;;;;;23.98;54.89;99551.84;2283949;76;50955;-72
2023/09/22 07:10:42;;;;;;;17.25;4.00;;;;;;;23.99;54.87;99546.17;2349705;75;51547;-73
2023/09/22 07:13:44;;;;;;;15.50;3.60;;;;;;;23.98;54.82;99539.67;2349391;75;51415;-73
2023/09/22 07:16:46;;;;;;;12.45;3.75;;;;;;;23.96;54.86;99545.31;2295594;76;51023;-73
2023/09/22 07:19:49;;;;;;;12.70;3.58;;;;;;;23.97;54.88;99557.78;2314252;76;51475;-72
2023/09/22 07:22:51;;;;;;;14.05;4.12;;;;;;;23.97;54.90;99573.14;2342537;76;50292;-73
2023/09/22 07:26:09;;;;;;;13.95;3.70;;;;;;;23.98;54.79;99579.67;2342629;74;50288;-73
2023/09/22 07:29:11;;;;;;;12.00;3.50;;;;;;;23.97;54.80;99578.04;2343030;76;22162;-73
2023/09/22 07:32:14;;;;;;;10.50;3.27;;;;;;;23.97;54.79;99584.80;2296615;76;52491;-73
2023/09/22 07:35:16;;;;;;;12.33;3.65;;;;;;;23.95;54.81;99581.52;2322965;75;51475;-74
2023/09/22 07:38:21;;;;;;;14.23;3.67;;;;;;;23.95;54.77;99574.76;2342642;76;51437;-73
2023/09/22 07:41:23;;;;;;;14.75;3.62;;;;;;;23.93;54.84;99575.53;2322873;76;52365;-73
2023/09/22 07:44:27;;;;;;;9.78;3.52;;;;;;;23.94;54.89;99598.77;2327137;75;50200;-73
2023/09/22 07:47:29;;;;;;;12.95;3.98;;;;;;;23.93;54.89;99606.59;2306866;76;51572;-74
2023/09/22 07:50:34;;;;;;;10.45;3.05;;;;;;;23.94;54.79;99614.17;2290656;76;50369;-73
2023/09/22 07:53:37;;;;;;;8.38;3.30;;;;;;;23.94;54.78;99622.27;2332950;75;22454;-72
2023/09/22 07:56:39;;;;;;;7.15;3.10;;;;;;;23.92;54.77;99610.38;2306892;76;52735;-73
2023/09/22 07:59:42;;;;;;;6.45;2.85;;;;;;;23.94;54.69;99616.33;2305471;76;50623;-73
2023/09/22 08:02:45;;;;;;;10.65;3.40;;;;;;;23.94;54.65;99629.84;2305262;76;50323;-74
2023/09/22 08:05:52;;;;;;;10.00;3.10;;;;;;;23.93;54.69;99636.32;2306846;76;52440;-73
2023/09/22 08:08:52;;;;;;;13.58;4.10;;;;;;;23.93;54.62;99630.11;2332545;75;22245;-74
2023/09/22 08:11:54;;;;;;;7.55;3.30;;;;;;;23.92;54.71;99627.94;2333191;75;51458;-73
2023/09/22 08:14:57;;;;;;;9.80;3.70;;;;;;;23.91;54.68;99622.23;2333082;76;51376;-74
2023/09/22 08:17:59;;;;;;;9.28;3.10;;;;;;;23.91;54.66;99622.23;2305140;76;50671;-73
2023/09/22 08:21:02;;;;;;;11.97;3.58;;;;;;;23.90;54.71;99636.81;2299322;76;51209;-74
2023/09/22 08:24:05;;;;;;;11.35;3.62;;;;;;;23.90;54.64;99654.38;2316881;76;51501;-73
2023/09/22 08:27:08;;;;;;;6.85;3.20;;;;;;;23.90;54.62;99635.46;2291073;76;50532;-73
2023/09/22 08:30:11;;;;;;;9.55;3.37;;;;;;;23.91;54.58;99641.95;2291494;76;50599;-73
2023/09/22 08:33:13;;;;;;;5.80;3.05;;;;;;;23.90;54.61;99663.83;2290625;76;51541;-72
2023/09/22 08:36:15;;;;;;;9.65;3.02;;;;;;;23.90;54.64;99667.88;2291198;76;51310;-73
2023/09/22 08:39:18;;;;;;;9.28;3.72;;;;;;;23.90;54.58;99676.80;2291395;76;51632;-73
2023/09/22 08:42:20;;;;;;;5.90;2.90;;;;;;;23.91;54.50;99685.72;2318347;76;51378;-73
2023/09/22 08:45:22;;;;;;;5.80;2.80;;;;;;;23.91;54.47;99681.67;2302994;76;52574;-73
2023/09/22 08:48:25;;;;;;;6.60;3.00;;;;;;;23.89;54.57;99682.44;2331523;76;51496;-73
2023/09/22 08:51:27;;;;;;;5.55;2.70;;;;;;;23.91;54.46;99691.13;2325552;76;50373;-72
2023/09/22 08:54:29;;;;;;;6.85;3.12;;;;;;;23.91;54.50;99691.13;2306370;76;49611;-72
2023/09/22 08:57:32;;;;;;;8.00;2.67;;;;;;;23.89;54.52;99693.24;2338800;76;50206;-72
2023/09/22 09:00:34;;;;;;;7.53;3.30;;;;;;;23.89;54.54;99697.30;2338745;76;50590;-73
2023/09/22 09:03:36;;;;;;;8.03;3.20;;;;;;;23.89;54.46;99695.94;2332829;76;51444;-73
2023/09/22 09:06:47;;;;;;;8.78;3.25;;;;;;;23.89;54.43;99704.05;2338800;76;50743;-73
2023/09/22 09:09:49;;;;;;;4.92;2.83;;;;;;;23.88;54.46;99705.13;2307703;76;50401;-73
2023/09/22 09:12:52;;;;;;;7.03;2.80;;;;;;;23.87;54.44;99700.80;2306624;75;50261;-73
2023/09/22 09:15:57;;;;;;;5.90;2.90;;;;;;;23.87;54.45;99702.95;2333166;76;51502;-73
2023/09/22 09:19:20;;;;;;;6.47;3.03;;;;;;;23.86;54.43;99703.19;2337045;76;22940;-72
2023/09/22 09:22:18;;;;;;;8.10;2.80;;;;;;;23.86;54.46;99708.05;2325667;76;22296;-72
2023/09/22 09:25:20;;;;;;;4.10;2.50;;;;;;;23.87;54.40;99725.11;2338740;76;51463;-73
2023/09/22 09:28:24;;;;;;;5.45;2.40;;;;;;;23.87;54.36;99727.81;2281293;76;52321;-73
2023/09/22 09:31:46;;;;;;;5.47;2.75;;;;;;;23.87;54.38;99737.27;2333160;75;50018;-73
2023/09/22 09:34:48;;;;;;;5.20;2.98;;;;;;;23.86;54.43;99738.31;2338416;76;51578;-72
2023/09/22 09:38:06;;;;;;;6.85;2.87;;;;;;;23.85;54.36;99743.43;2306505;76;51713;-73
2023/09/22 09:41:05;;;;;;;4.20;2.33;;;;;;;23.84;54.44;99752.58;2337634;76;22773;-73
2023/09/22 09:44:09;;;;;;;4.62;2.90;;;;;;;23.83;54.44;99739.61;2334149;75;51560;-73
2023/09/22 09:47:11;;;;;;;6.15;2.80;;;;;;;23.83;54.40;99733.39;2319088;76;50138;-73
2023/09/22 09:50:14;;;;;;;7.08;2.75;;;;;;;23.82;54.44;99751.48;2301325;76;50141;-74
2023/09/22 09:53:26;;;;;;;4.00;2.30;;;;;;;23.83;54.41;99749.59;2260644;75;50841;-73
2023/09/22 09:56:29;;;;;;;5.15;2.45;;;;;;;23.84;54.31;99759.33;2317174;76;50642;-73
2023/09/22 09:59:31;;;;;;;7.97;2.47;;;;;;;23.83;54.31;99759.87;2317116;76;51425;-73
2023/09/22 10:02:34;;;;;;;5.08;2.52;;;;;;;23.82;54.33;99756.08;2316846;76;51486;-73
2023/09/22 10:05:36;;;;;;;3.20;2.08;;;;;;;23.81;54.34;99755.23;2317029;76;50652;-73
2023/09/22 10:08:38;;;;;;;7.10;2.70;;;;;;;23.83;54.28;99756.35;2318783;76;50383;-73
2023/09/22 10:11:40;;;;;;;6.58;2.65;;;;;;;23.85;54.26;99746.13;2318851;76;50243;-73
2023/09/22 10:14:53;;;;;;;3.65;2.40;;;;;;;23.83;54.21;99739.61;2316814;75;50603;-73
2023/09/22 10:17:54;;;;;;;6.67;2.60;;;;;;;23.82;54.34;99738.52;2315540;76;22314;-73
2023/09/22 10:20:56;;;;;;;4.37;2.65;;;;;;;23.83;54.25;99744.20;2299025;76;50254;-72
2023/09/22 10:24:27;;;;;;;2.83;2.00;;;;;;;23.82;54.31;99749.32;2270926;77;50198;-72
2023/09/22 10:27:28;;;;;;;4.40;2.17;;;;;;;23.83;54.25;99753.11;2268209;77;22146;-74
2023/09/22 10:30:48;;;;;;;5.85;2.25;;;;;;;23.84;54.22;99741.77;2246649;77;22441;-74
2023/09/22 10:33:50;;;;;;;4.33;2.25;;;;;;;23.84;54.15;99741.77;2268807;78;50655;-73
2023/09/22 10:36:52;;;;;;;6.62;2.55;;;;;;;23.83;54.19;99742.84;2269200;77;51401;-73
2023/09/22 10:40:19;;;;;;;5.75;2.42;;;;;;;23.83;54.15;99749.06;2245827;77;51397;-73
2023/09/22 10:43:18;;;;;;;3.58;2.22;;;;;;;23.82;54.15;99748.78;2267668;78;22297;-73
2023/09/22 10:46:20;;;;;;;4.15;2.40;;;;;;;23.82;54.16;99746.62;2245591;77;51235;-73
2023/09/22 10:49:29;;;;;;;5.50;2.40;;;;;;;23.81;54.16;99745.77;2296538;75;50718;-73
2023/09/22 10:52:31;;;;;;;2.87;2.17;;;;;;;23.81;54.14;99753.88;2259849;76;51093;-74
2023/09/22 10:55:37;;;;;;;6.10;2.30;;;;;;;23.79;54.22;99766.83;2283519;77;51437;-73
2023/09/22 10:58:39;;;;;;;4.00;2.47;;;;;;;23.79;54.21;99771.39;2284176;77;50765;-72
2023/09/22 11:01:49;;;;;;;6.60;2.50;;;;;;;23.80;54.17;99759.54;2305101;77;50590;-74
2023/09/22 11:04:49;;;;;;;3.37;2.00;;;;;;;23.79;54.21;99751.13;2303584;77;22311;-73
2023/09/22 11:07:51;;;;;;;4.00;2.25;;;;;;;23.79;54.13;99741.16;2283672;77;50333;-72
2023/09/22 11:10:55;;;;;;;5.67;2.35;;;;;;;23.80;54.07;99744.14;2309220;77;51528;-73
2023/09/22 11:13:58;;;;;;;5.12;2.55;;;;;;;23.80;54.07;99741.98;2283680;77;51571;-72
2023/09/22 11:17:00;;;;;;;2.98;2.17;;;;;;;23.79;54.10;99750.62;2258389;77;51764;-73
2023/09/22 11:20:03;;;;;;;3.60;2.10;;;;;;;23.79;54.13;99755.18;2322369;75;51508;-72
2023/09/22 11:23:06;;;;;;;4.15;2.42;;;;;;;23.78;54.14;99749.50;2291225;76;51546;-73
2023/09/22 11:26:12;;;;;;;3.52;1.95;;;;;;;23.79;54.09;99748.42;2316971;76;50096;-73
2023/09/22 11:29:17;;;;;;;3.10;2.10;;;;;;;23.81;54.03;99736.86;2291342;76;50439;-73
2023/09/22 11:32:23;;;;;;;3.90;2.17;;;;;;;23.80;54.01;99729.29;2316884;76;50333;-73
2023/09/22 11:35:43;;;;;;;3.80;2.02;;;;;;;23.80;54.00;99736.04;2315285;76;50303;-73
2023/09/22 11:38:45;;;;;;;3.85;2.05;;;;;;;23.79;54.05;99738.97;2315637;76;22261;-73
2023/09/22 11:41:48;;;;;;;2.87;1.80;;;;;;;23.80;54.01;99742.80;2291812;76;22374;-73
2023/09/22 11:45:00;;;;;;;3.10;2.20;;;;;;;23.79;53.99;99744.38;2290636;76;51543;-74
2023/09/22 11:48:05;;;;;;;4.90;2.17;;;;;;;23.81;53.96;99750.36;2311334;77;51581;-72
2023/09/22 11:51:07;;;;;;;4.55;1.90;;;;;;;23.79;54.02;99767.33;2294429;76;51476;-72
2023/09/22 11:54:10;;;;;;;2.65;2.00;;;;;;;23.79;53.98;99772.73;2278978;77;51662;-72
2023/09/22 11:57:13;;;;;;;4.10;2.25;;;;;;;23.80;53.91;99775.75;2284679;76;51541;-72
2023/09/22 12:00:17;;;;;;;2.85;1.90;;;;;;;23.80;53.92;99775.75;2284735;77;50419;-73
2023/09/22 12:03:19;;;;;;;3.05;2.02;;;;;;;23.77;54.01;99779.75;2284637;76;22932;-73
2023/09/22 12:06:21;;;;;;;3.75;2.40;;;;;;;23.76;54.02;99792.94;2254329;78;52396;-73
2023/09/22 12:09:23;;;;;;;3.25;2.05;;;;;;;23.76;54.04;99787.54;2284696;77;49991;-73
2023/09/22 12:12:25;;;;;;;3.45;2.10;;;;;;;23.77;53.99;99785.69;2278879;76;50233;-73
2023/09/22 12:15:28;;;;;;;3.15;2.08;;;;;;;23.79;53.96;99790.30;2279026;78;50616;-72
2023/09/22 12:18:30;;;;;;;5.05;2.42;;;;;;;23.77;53.94;99787.03;2287817;76;50583;-72
2023/09/22 12:21:32;;;;;;;5.35;2.55;;;;;;;23.79;53.92;99788.94;2256595;77;49355;-72
2023/09/22 12:24:35;;;;;;;3.77;2.10;;;;;;;23.78;53.93;99785.97;2307506;76;51560;-73
2023/09/22 12:27:37;;;;;;;3.37;2.08;;;;;;;23.80;53.90;99796.82;2281856;77;50735;-73
2023/09/22 12:30:40;;;;;;;3.05;2.15;;;;;;;23.78;53.90;99798.12;2281633;76;52475;-73
2023/09/22 12:33:42;;;;;;;5.25;2.10;;;;;;;23.79;53.92;99813.26;2307243;76;50259;-73
2023/09/22 12:36:44;;;;;;;2.85;2.12;;;;;;;23.78;53.93;99802.17;2313062;76;50301;-73
2023/09/22 12:39:47;;;;;;;3.22;2.10;;;;;;;23.77;53.89;99815.40;2281855;77;50226;-73
2023/09/22 12:42:49;;;;;;;3.65;2.27;;;;;;;23.76;53.95;99824.01;2281833;75;51619;-73
2023/09/22 12:45:56;;;;;;;2.40;2.20;;;;;;;23.75;53.96;99818.86;2277580;77;51109;-73
2023/09/22 12:48:57;;;;;;;3.50;2.30;;;;;;;23.75;53.95;99832.37;2307286;76;22072;-74
2023/09/22 12:51:59;;;;;;;3.60;2.10;;;;;;;23.77;53.89;99843.77;2327578;76;24334;-73
2023/09/22 12:55:02;;;;;;;3.27;2.08;;;;;;;23.76;53.90;99843.45;2279579;76;51622;-72
2023/09/22 12:58:04;;;;;;;4.47;2.30;;;;;;;23.75;53.90;99835.06;2305169;76;49963;-72
2023/09/22 13:01:08;;;;;;;3.12;2.17;;;;;;;23.74;53.91;99837.45;2305322;76;50026;-72
2023/09/22 13:04:11;;;;;;;4.40;2.33;;;;;;;23.75;53.89;99837.23;2332643;76;51412;-73
2023/09/22 13:07:15;;;;;;;3.75;2.50;;;;;;;23.75;53.87;99821.56;2305245;76;50605;-73
2023/09/22 13:10:17;;;;;;;3.50;2.02;;;;;;;23.76;53.81;99821.84;2263545;76;52357;-73
2023/09/22 13:13:19;;;;;;;3.58;2.00;;;;;;;23.75;53.85;99824.27;2332910;76;50233;-73
2023/09/22 13:16:21;;;;;;;3.33;2.40;;;;;;;23.74;53.83;99822.60;2305272;76;50068;-73
2023/09/22 13:19:24;;;;;;;2.95;2.20;;;;;;;23.76;53.83;99823.19;2259007;76;51149;-73
2023/09/22 13:22:26;;;;;;;3.95;2.30;;;;;;;23.75;53.79;99822.91;2314304;76;51509;-73
2023/09/22 13:25:39;;;;;;;4.28;2.12;;;;;;;23.75;53.80;99816.97;2291092;76;51506;-73
2023/09/22 13:28:42;;;;;;;4.83;2.45;;;;;;;23.75;53.76;99804.82;2291130;76;50302;-73
2023/09/22 13:31:44;;;;;;;3.35;2.00;;;;;;;23.75;53.74;99808.06;2291290;76;50626;-72
2023/09/22 13:34:46;;;;;;;4.17;2.47;;;;;;;23.75;53.73;99814.81;2292458;76;49531;-73
2023/09/22 13:37:49;;;;;;;3.47;2.20;;;;;;;23.75;53.72;99815.63;2316859;76;50732;-73
2023/09/22 13:40:52;;;;;;;2.50;2.05;;;;;;;23.76;53.69;99805.63;2318640;76;51536;-73
2023/09/22 13:43:54;;;;;;;2.80;1.98;;;;;;;23.74;53.75;99799.64;2266133;76;49853;-73
2023/09/22 13:46:56;;;;;;;3.85;2.35;;;;;;;23.74;53.74;99795.09;2318196;76;50739;-73
2023/09/22 13:49:59;;;;;;;3.75;2.37;;;;;;;23.75;53.65;99805.36;2288959;76;51489;-73
2023/09/22 13:53:01;;;;;;;25.15;3.30;;;;;;;23.74;53.71;99809.09;2318686;76;50603;-74
2023/09/22 13:56:08;;;;;;;20.57;3.70;;;;;;;23.70;53.96;99802.80;2305280;75;51475;-74
2023/09/22 13:59:08;;;;;;;20.37;3.60;;;;;;;23.73;53.95;99815.57;2318751;76;22352;-74
2023/09/22 14:02:10;;;;;;;18.17;3.62;;;;;;;23.74;53.89;99810.45;2333057;76;50661;-74
2023/09/22 14:05:13;;;;;;;37.17;4.45;;;;;;;23.73;53.80;99796.66;2318740;76;50354;-73
2023/09/22 14:08:16;;;;;;;38.13;4.53;;;;;;;23.74;53.96;99803.70;2279914;76;52433;-73
2023/09/22 14:11:18;;;;;;;30.20;4.85;;;;;;;23.74;54.02;99800.99;2319027;76;50286;-73
2023/09/22 14:14:21;;;;;;;38.40;4.90;;;;;;;23.73;53.95;99800.72;2318785;76;50401;-74
2023/09/22 14:17:24;;;;;;;32.20;4.60;;;;;;;23.75;53.90;99795.91;2333196;76;50285;-73